createdAt,value
2018-09-24T00:01:48.057Z,98449.82
2018-09-24T00:04:16.613Z,98461.58
2018-09-24T00:06:45.154Z,98468.08
2018-09-24T00:09:13.725Z,98477.36
2018-09-24T00:11:42.299Z,98477.37
2018-09-24T00:14:10.925Z,98490.90
2018-09-24T00:16:39.472Z,98505.77
2018-09-24T00:19:08.302Z,98509.57
2018-09-24T00:21:36.866Z,98523.29
2018-09-24T00:24:05.438Z,98536.05
2018-09-24T00:26:34.004Z,98531.28
2018-09-24T00:29:02.575Z,98542.51
2018-09-24T00:31:31.119Z,98553.38
2018-09-24T00:33:59.710Z,98558.70
2018-09-24T00:36:28.268Z,98566.33
2018-09-24T00:38:56.852Z,98561.00
2018-09-24T00:41:25.409Z,98578.94
2018-09-24T00:43:53.995Z,98582.22
2018-09-24T00:46:22.525Z,98580.84
2018-09-24T00:48:51.109Z,98591.70
2018-09-24T00:51:19.661Z,98592.05
2018-09-24T00:53:48.252Z,98595.12
2018-09-24T00:56:16.802Z,98598.47
2018-09-24T00:58:45.372Z,98601.56
2018-09-24T01:01:13.928Z,98603.66
2018-09-24T01:03:42.546Z,98610.44
2018-09-24T01:06:11.094Z,98623.91
2018-09-24T01:08:39.657Z,98627.32
2018-09-24T01:11:08.204Z,98634.30
2018-09-24T01:13:36.780Z,98641.48
2018-09-24T01:16:05.356Z,98642.00
2018-09-24T01:18:33.942Z,98641.89
2018-09-24T01:21:02.488Z,98642.11
2018-09-24T01:23:31.096Z,98643.55
2018-09-24T01:25:59.731Z,98657.91
2018-09-24T01:28:28.317Z,98655.03
2018-09-24T01:30:56.865Z,98649.22
2018-09-24T01:33:25.461Z,98647.77
2018-09-24T01:35:53.976Z,98653.95
2018-09-24T01:38:22.601Z,98661.30
2018-09-24T01:40:51.152Z,98669.61
2018-09-24T01:43:19.716Z,98675.63
2018-09-24T01:45:48.290Z,98681.88
2018-09-24T01:48:16.843Z,98678.78
2018-09-24T01:50:45.424Z,98685.44
2018-09-24T01:53:13.978Z,98687.68
2018-09-24T01:55:43.262Z,98689.63
2018-09-24T01:58:11.789Z,98691.05
2018-09-24T02:00:40.373Z,98696.28
2018-09-24T02:03:08.930Z,98704.27
2018-09-24T02:05:37.510Z,98711.13
2018-09-24T02:08:06.098Z,98710.92
2018-09-24T02:10:34.668Z,98711.51
2018-09-24T02:13:03.220Z,98721.94
2018-09-24T02:15:33.065Z,98709.34
2018-09-24T02:18:01.916Z,98720.94
2018-09-24T02:20:30.508Z,98736.07
2018-09-24T02:22:59.069Z,98746.39
2018-09-24T02:25:27.689Z,98754.07
2018-09-24T02:27:56.215Z,98758.56
2018-09-24T02:30:24.809Z,98761.13
2018-09-24T02:32:53.358Z,98761.14
2018-09-24T02:35:21.990Z,98768.36
2018-09-24T02:37:50.525Z,98770.78
2018-09-24T02:40:22.905Z,98769.80
2018-09-24T02:42:51.744Z,98774.30
2018-09-24T02:45:20.776Z,98775.77
2018-09-24T02:47:49.339Z,98781.69
2018-09-24T02:50:17.916Z,98782.94
2018-09-24T02:52:46.461Z,98787.13
2018-09-24T02:55:17.772Z,98782.64
2018-09-24T02:57:46.408Z,98797.65
2018-09-24T03:00:20.056Z,98800.42
2018-09-24T03:02:48.645Z,98800.97
2018-09-24T03:05:17.237Z,98812.28
2018-09-24T03:07:45.793Z,98811.63
2018-09-24T03:10:14.382Z,98822.03
2018-09-24T03:12:48.463Z,98830.98
2018-09-24T03:15:17.054Z,98826.26
2018-09-24T03:17:45.664Z,98836.70
2018-09-24T03:20:14.316Z,98836.30
2018-09-24T03:22:42.893Z,98854.81
2018-09-24T03:25:17.261Z,98855.41
2018-09-24T03:27:46.144Z,98850.48
2018-09-24T03:30:14.834Z,98857.27
2018-09-24T03:32:43.468Z,98861.38
2018-09-24T03:35:12.069Z,98861.64
2018-09-24T03:37:40.726Z,98869.36
2018-09-24T03:40:09.317Z,98866.45
2018-09-24T03:42:37.871Z,98869.30
2018-09-24T03:45:06.529Z,98881.07
2018-09-24T03:47:35.069Z,98880.77
2018-09-24T03:50:03.688Z,98883.55
2018-09-24T03:52:32.241Z,98876.20
2018-09-24T03:55:00.789Z,98876.58
2018-09-24T03:57:29.362Z,98879.05
2018-09-24T03:59:57.897Z,98880.81
2018-09-24T04:02:26.450Z,98882.58
2018-09-24T04:05:00.148Z,98877.91
2018-09-24T04:07:34.060Z,98876.88
2018-09-24T04:10:07.884Z,98886.09
2018-09-24T04:12:41.676Z,98891.52
2018-09-24T04:15:15.578Z,98890.28
2018-09-24T04:17:49.477Z,98895.41
2018-09-24T04:20:23.324Z,98899.27
2018-09-24T04:22:57.013Z,98896.69
2018-09-24T04:25:30.858Z,98898.71
2018-09-24T04:28:04.561Z,98902.76
2018-09-24T04:30:38.489Z,98912.26
2018-09-24T04:33:12.337Z,98910.30
2018-09-24T04:35:46.202Z,98914.58
2018-09-24T04:38:20.097Z,98915.47
2018-09-24T04:40:53.952Z,98925.73
2018-09-24T04:43:27.868Z,98922.74
2018-09-24T04:46:01.698Z,98927.95
2018-09-24T04:48:35.409Z,98932.58
2018-09-24T04:51:09.187Z,98935.47
2018-09-24T04:53:42.912Z,98934.37
2018-09-24T04:56:16.693Z,98941.16
2018-09-24T04:58:50.608Z,98948.50
2018-09-24T05:01:24.400Z,98946.48
2018-09-24T05:03:58.309Z,98954.25
2018-09-24T05:06:32.100Z,98945.98
2018-09-24T05:09:05.776Z,98955.88
2018-09-24T05:11:39.632Z,98963.25
2018-09-24T05:14:13.533Z,98961.59
2018-09-24T05:16:47.344Z,98976.19
2018-09-24T05:19:21.342Z,98980.17
2018-09-24T05:21:55.178Z,98979.98
2018-09-24T05:24:28.840Z,98995.77
2018-09-24T05:27:02.652Z,98998.88
2018-09-24T05:29:36.325Z,99003.67
2018-09-24T05:32:10.177Z,99002.34
2018-09-24T05:34:44.856Z,99009.73
2018-09-24T05:37:18.664Z,99014.37
2018-09-24T05:39:52.518Z,99028.80
2018-09-24T05:42:26.218Z,99027.84
2018-09-24T05:45:00.001Z,99030.61
2018-09-24T05:47:33.824Z,99037.22
2018-09-24T05:50:08.319Z,99042.14
2018-09-24T05:52:42.327Z,99051.45
2018-09-24T05:55:16.236Z,99056.20
2018-09-24T05:57:50.136Z,99056.58
2018-09-24T06:00:24.117Z,99061.77
2018-09-24T06:02:58.416Z,99072.81
2018-09-24T06:05:32.693Z,99076.30
2018-09-24T06:08:06.575Z,99079.98
2018-09-24T06:10:40.490Z,99094.36
2018-09-24T06:13:14.414Z,99092.17
2018-09-24T06:15:48.288Z,99098.58
2018-09-24T06:18:22.104Z,99099.14
2018-09-24T06:20:55.917Z,99100.73
2018-09-24T06:23:29.797Z,99104.41
2018-09-24T06:26:03.702Z,99107.52
2018-09-24T06:28:37.549Z,99112.15
2018-09-24T06:31:11.465Z,99118.52
2018-09-24T06:33:45.460Z,99113.36
2018-09-24T06:36:19.350Z,99117.63
2018-09-24T06:38:53.177Z,99124.31
2018-09-24T06:41:27.007Z,99130.09
2018-09-24T06:44:00.881Z,99129.47
2018-09-24T06:46:34.757Z,99138.97
2018-09-24T06:49:08.815Z,99143.92
2018-09-24T06:51:42.667Z,99148.82
2018-09-24T06:54:16.481Z,99148.59
2018-09-24T06:56:50.213Z,99156.45
2018-09-24T06:59:24.020Z,99162.41
2018-09-24T07:01:57.824Z,99160.84
2018-09-24T07:04:32.126Z,99167.16
2018-09-24T07:07:05.973Z,99184.91
2018-09-24T07:09:39.890Z,99184.63
2018-09-24T07:12:13.647Z,99192.66
2018-09-24T07:14:47.596Z,99193.36
2018-09-24T07:17:21.308Z,99196.19
2018-09-24T07:19:55.027Z,99192.87
2018-09-24T07:22:28.870Z,99212.36
2018-09-24T07:25:02.662Z,99211.83
2018-09-24T07:27:36.464Z,99218.46
2018-09-24T07:30:10.426Z,99208.18
2018-09-24T07:32:44.186Z,99228.27
2018-09-24T07:35:17.933Z,99223.09
2018-09-24T07:37:51.826Z,99232.75
2018-09-24T07:40:25.873Z,99230.00
2018-09-24T07:42:59.692Z,99237.37
2018-09-24T07:45:33.482Z,99251.17
2018-09-24T07:48:07.362Z,99253.08
2018-09-24T07:50:41.726Z,99257.70
2018-09-24T07:53:15.561Z,99259.57
2018-09-24T07:55:49.489Z,99269.50
2018-09-24T07:58:23.701Z,99278.17
2018-09-24T08:00:57.722Z,99286.15
2018-09-24T08:03:32.184Z,99290.34
2018-09-24T08:06:19.971Z,99294.84
2018-09-24T08:09:11.139Z,99302.78
2018-09-24T08:11:46.628Z,99302.98
2018-09-24T08:14:41.327Z,99298.13
2018-09-24T08:17:29.355Z,99312.37
2018-09-24T08:20:04.544Z,99303.00
2018-09-24T08:22:39.459Z,99311.64
2018-09-24T08:25:14.211Z,99320.66
2018-09-24T08:27:49.805Z,99325.73
2018-09-24T08:30:24.208Z,99310.30
2018-09-24T08:32:58.795Z,99327.80
2018-09-24T08:35:32.909Z,99333.70
2018-09-24T08:38:06.929Z,99346.45
2018-09-24T08:40:40.636Z,99342.39
2018-09-24T08:43:15.760Z,99342.97
2018-09-24T08:45:50.461Z,99346.75
2018-09-24T08:48:24.264Z,99357.66
2018-09-24T08:50:58.177Z,99355.85
2018-09-24T08:53:32.201Z,99354.92
2018-09-24T08:56:06.084Z,99360.63
2018-09-24T08:58:39.801Z,99351.59
2018-09-24T09:01:13.705Z,99352.64
2018-09-24T09:03:47.620Z,99365.89
2018-09-24T09:06:28.577Z,99373.64
2018-09-24T09:09:02.256Z,99373.27
2018-09-24T09:11:36.064Z,99380.08
2018-09-24T09:14:09.924Z,99384.33
2018-09-24T09:16:43.692Z,99387.59
2018-09-24T09:19:17.408Z,99407.31
2018-09-24T09:21:51.302Z,99389.03
2018-09-24T09:24:25.136Z,99382.61
2018-09-24T09:26:58.977Z,99388.63
2018-09-24T09:29:32.967Z,99375.28
2018-09-24T09:32:06.801Z,99390.29
2018-09-24T09:34:40.697Z,99396.42
2018-09-24T09:37:14.483Z,99406.02
2018-09-24T09:39:48.260Z,99413.80
2018-09-24T09:42:22.028Z,99399.25
2018-09-24T09:44:55.855Z,99404.27
2018-09-24T09:47:29.841Z,99403.44
2018-09-24T09:50:03.709Z,99405.30
2018-09-24T09:52:37.570Z,99389.45
2018-09-24T09:55:11.377Z,99404.66
2018-09-24T09:57:45.174Z,99402.16
2018-09-24T10:00:19.037Z,99406.71
2018-09-24T10:02:52.580Z,99402.39
2018-09-24T10:05:26.365Z,99400.67
2018-09-24T10:08:00.078Z,99394.65
2018-09-24T10:10:33.858Z,99401.89
2018-09-24T10:13:07.557Z,99385.80
2018-09-24T10:15:41.509Z,99398.78
2018-09-24T10:18:15.312Z,99380.47
2018-09-24T10:20:49.159Z,99407.78
2018-09-24T10:23:22.960Z,99394.52
2018-09-24T10:25:56.827Z,99389.41
2018-09-24T10:28:30.672Z,99378.48
2018-09-24T10:31:04.399Z,99391.36
2018-09-24T10:33:38.449Z,99392.92
2018-09-24T10:36:12.393Z,99407.26
2018-09-24T10:38:46.180Z,99399.07
2018-09-24T10:41:20.033Z,99396.20
2018-09-24T10:43:53.713Z,99405.83
2018-09-24T10:46:27.483Z,99401.31
2018-09-24T10:49:01.331Z,99382.60
2018-09-24T10:51:35.224Z,99397.55
2018-09-24T10:54:08.900Z,99386.19
2018-09-24T10:56:42.777Z,99397.16
2018-09-24T10:59:16.821Z,99393.23
2018-09-24T11:01:50.572Z,99404.16
2018-09-24T11:04:24.357Z,99420.16
2018-09-24T11:06:58.110Z,99411.45
2018-09-24T11:09:31.869Z,99411.72
2018-09-24T11:12:05.668Z,99418.42
2018-09-24T11:14:39.618Z,99413.13
2018-09-24T11:17:13.678Z,99414.72
2018-09-24T11:19:47.336Z,99415.27
2018-09-24T11:22:21.246Z,99401.30
2018-09-24T11:24:55.109Z,99410.64
2018-09-24T11:27:28.949Z,99409.96
2018-09-24T11:30:04.579Z,99413.83
2018-09-24T11:32:39.236Z,99402.94
2018-09-24T11:35:13.088Z,99400.30
2018-09-24T11:37:46.957Z,99403.23
2018-09-24T11:40:22.970Z,99405.72
2018-09-24T11:42:56.732Z,99405.39
2018-09-24T11:45:30.597Z,99418.46
2018-09-24T11:48:04.583Z,99413.63
2018-09-24T11:50:38.448Z,99409.89
2018-09-24T11:53:12.357Z,99428.63
2018-09-24T11:55:46.168Z,99426.38
2018-09-24T11:58:20.297Z,99419.75
2018-09-24T12:00:54.053Z,99424.24
2018-09-24T12:03:28.000Z,99405.86
2018-09-24T12:06:01.762Z,99407.44
2018-09-24T12:08:35.605Z,99422.28
2018-09-24T12:11:09.354Z,99424.20
2018-09-24T12:13:43.165Z,99414.41
2018-09-24T12:16:16.962Z,99408.92
2018-09-24T12:18:50.774Z,99401.98
2018-09-24T12:21:24.564Z,99423.91
2018-09-24T12:23:58.530Z,99416.66
2018-09-24T12:26:32.433Z,99402.75
2018-09-24T12:29:06.274Z,99402.67
2018-09-24T12:31:40.066Z,99400.53
2018-09-24T12:34:13.754Z,99404.06
2018-09-24T12:36:47.576Z,99408.38
2018-09-24T12:39:21.609Z,99398.02
2018-09-24T12:41:55.490Z,99399.17
2018-09-24T12:44:29.349Z,99391.09
2018-09-24T12:47:03.125Z,99400.20
2018-09-24T12:49:37.034Z,99400.84
2018-09-24T12:52:10.906Z,99403.95
2018-09-24T12:54:44.850Z,99396.38
2018-09-24T12:57:18.583Z,99399.37
2018-09-24T12:59:52.456Z,99396.17
2018-09-24T13:02:26.454Z,99411.12
2018-09-24T13:05:00.374Z,99403.38
2018-09-24T13:07:34.233Z,99416.63
2018-09-24T13:10:08.197Z,99415.36
2018-09-24T13:12:42.047Z,99414.34
2018-09-24T13:15:15.829Z,99419.67
2018-09-24T13:17:49.484Z,99409.94
2018-09-24T13:20:23.452Z,99400.64
2018-09-24T13:22:57.385Z,99401.02
2018-09-24T13:25:31.205Z,99397.90
2018-09-24T13:28:04.972Z,99389.44
2018-09-24T13:30:38.772Z,99397.16
2018-09-24T13:33:12.732Z,99386.02
2018-09-24T13:35:46.552Z,99397.63
2018-09-24T13:38:20.342Z,99412.16
2018-09-24T13:40:53.964Z,99401.08
2018-09-24T13:43:27.733Z,99415.53
2018-09-24T13:46:01.683Z,99406.41
2018-09-24T13:48:35.562Z,99404.29
2018-09-24T13:51:09.633Z,99393.69
2018-09-24T13:53:43.569Z,99394.42
2018-09-24T13:56:17.537Z,99401.88
2018-09-24T13:58:51.505Z,99388.90
2018-09-24T14:01:25.462Z,99388.73
2018-09-24T14:03:59.303Z,99385.62
2018-09-24T14:06:34.214Z,99383.74
2018-09-24T14:09:07.930Z,99374.19
2018-09-24T14:11:41.674Z,99388.88
2018-09-24T14:14:15.559Z,99380.68
2018-09-24T14:16:50.208Z,99385.43
2018-09-24T14:19:24.084Z,99395.19
2018-09-24T14:21:57.856Z,99400.67
2018-09-24T14:24:31.802Z,99399.01
2018-09-24T14:27:07.073Z,99403.26
2018-09-24T14:29:40.860Z,99404.02
2018-09-24T14:32:14.804Z,99407.64
2018-09-24T14:34:48.978Z,99394.17
2018-09-24T14:37:26.045Z,99408.05
2018-09-24T14:39:59.861Z,99401.88
2018-09-24T14:42:34.057Z,99401.48
2018-09-24T14:45:07.937Z,99401.45
2018-09-24T14:47:42.865Z,99397.70
2018-09-24T14:50:16.625Z,99392.72
2018-09-24T14:52:51.621Z,99403.58
2018-09-24T14:55:25.997Z,99411.45
2018-09-24T14:58:00.146Z,99399.99
2018-09-24T15:00:34.326Z,99409.08
2018-09-24T15:03:08.503Z,99400.14
2018-09-24T15:05:42.623Z,99406.97
2018-09-24T15:08:16.461Z,99406.28
2018-09-24T15:10:50.316Z,99412.89
2018-09-24T15:13:24.188Z,99407.36
2018-09-24T15:15:58.107Z,99408.25
2018-09-24T15:18:31.972Z,99414.03
2018-09-24T15:21:05.952Z,99406.16
2018-09-24T15:23:39.762Z,99403.94
2018-09-24T15:26:13.643Z,99398.08
2018-09-24T15:28:47.645Z,99414.96
2018-09-24T15:31:21.433Z,99408.42
2018-09-24T15:33:55.248Z,99420.91
2018-09-24T15:36:29.194Z,99406.94
2018-09-24T15:39:03.004Z,99414.58
2018-09-24T15:41:36.985Z,99422.53
2018-09-24T15:44:10.848Z,99415.93
2018-09-24T15:46:44.693Z,99416.94
2018-09-24T15:49:18.582Z,99418.70
2018-09-24T15:51:52.370Z,99423.23
2018-09-24T15:54:26.327Z,99423.31
2018-09-24T15:57:00.045Z,99414.45
2018-09-24T15:59:33.709Z,99417.92
2018-09-24T16:02:07.646Z,99409.14
2018-09-24T16:04:41.356Z,99417.98
2018-09-24T16:07:15.153Z,99410.05
2018-09-24T16:09:48.909Z,99410.46
2018-09-24T16:12:22.845Z,99411.98
2018-09-24T16:14:56.677Z,99411.67
2018-09-24T16:17:30.586Z,99409.64
2018-09-24T16:20:04.466Z,99419.00
2018-09-24T16:22:38.284Z,99423.82
2018-09-24T16:25:12.030Z,99427.55
2018-09-24T16:27:46.022Z,99427.34
2018-09-24T16:30:21.016Z,99432.69
2018-09-24T16:32:54.715Z,99428.53
2018-09-24T16:35:28.930Z,99435.81
2018-09-24T16:38:02.735Z,99436.34
2018-09-24T16:40:36.507Z,99440.36
2018-09-24T16:43:10.361Z,99451.87
2018-09-24T16:45:44.065Z,99452.53
2018-09-24T16:48:17.887Z,99453.02
2018-09-24T16:50:51.669Z,99449.33
2018-09-24T16:53:25.465Z,99457.12
2018-09-24T16:55:59.348Z,99460.56
2018-09-24T16:58:41.240Z,99457.52
2018-09-24T17:01:15.075Z,99456.02
2018-09-24T17:03:49.367Z,99459.59
2018-09-24T17:06:23.730Z,99462.90
2018-09-24T17:08:57.575Z,99469.94
2018-09-24T17:11:32.860Z,99462.44
2018-09-24T17:14:06.720Z,99468.79
2018-09-24T17:16:40.656Z,99469.79
2018-09-24T17:19:15.614Z,99470.36
2018-09-24T17:21:49.450Z,99472.16
2018-09-24T17:24:23.376Z,99472.97
2018-09-24T17:27:00.713Z,99472.33
2018-09-24T17:29:34.465Z,99482.52
2018-09-24T17:32:09.177Z,99484.22
2018-09-24T17:34:43.082Z,99496.07
2018-09-24T17:37:17.298Z,99502.91
2018-09-24T17:39:51.313Z,99494.65
2018-09-24T17:42:25.059Z,99506.30
2018-09-24T17:44:59.412Z,99511.63
2018-09-24T17:47:41.548Z,99516.58
2018-09-24T17:52:55.580Z,99522.16
2018-09-24T17:55:29.516Z,99521.40
2018-09-24T17:58:03.444Z,99532.07
2018-09-24T18:00:37.297Z,99535.37
2018-09-24T18:03:11.492Z,99536.52
2018-09-24T18:05:46.469Z,99525.03
2018-09-24T18:08:20.710Z,99539.95
2018-09-24T18:10:54.807Z,99536.65
2018-09-24T18:13:28.758Z,99540.59
2018-09-24T18:16:08.699Z,99539.94
2018-09-24T18:18:42.673Z,99545.00
2018-09-24T18:21:17.141Z,99542.05
2018-09-24T18:23:51.222Z,99543.20
2018-09-24T18:26:25.876Z,99545.88
2018-09-24T18:29:00.085Z,99543.24
2018-09-24T18:31:34.010Z,99555.05
2018-09-24T18:34:07.939Z,99552.56
2018-09-24T18:36:41.868Z,99551.20
2018-09-24T18:39:15.846Z,99554.09
2018-09-24T18:41:49.657Z,99554.56
2018-09-24T18:44:23.382Z,99560.17
2018-09-24T18:46:57.420Z,99569.37
2018-09-24T18:49:31.162Z,99569.28
2018-09-24T18:52:04.935Z,99575.25
2018-09-24T18:54:38.689Z,99580.11
2018-09-24T18:57:12.536Z,99581.26
2018-09-24T18:59:46.401Z,99579.86
2018-09-24T19:02:20.167Z,99575.45
2018-09-24T19:04:53.963Z,99576.75
2018-09-24T19:07:27.607Z,99575.70
2018-09-24T19:10:01.498Z,99577.32
2018-09-24T19:12:36.992Z,99580.63
2018-09-24T19:15:10.828Z,99582.15
2018-09-24T19:17:44.725Z,99589.36
2018-09-24T19:20:18.488Z,99588.31
2018-09-24T19:22:52.245Z,99592.12
2018-09-24T19:25:25.977Z,99595.55
2018-09-24T19:27:59.848Z,99591.02
2018-09-24T19:30:33.655Z,99598.80
2018-09-24T19:33:07.357Z,99595.44
2018-09-24T19:35:41.021Z,99598.50
2018-09-24T19:38:14.777Z,99606.72
2018-09-24T19:40:48.674Z,99609.75
2018-09-24T19:43:22.508Z,99615.42
2018-09-24T19:45:56.360Z,99614.34
2018-09-24T19:48:30.138Z,99615.86
2018-09-24T19:51:04.021Z,99620.81
2018-09-24T19:53:38.468Z,99624.00
2018-09-24T19:56:12.331Z,99624.69
2018-09-24T19:58:47.071Z,99621.84
2018-09-24T20:01:20.914Z,99623.53
2018-09-24T20:03:54.693Z,99621.80
2018-09-24T20:06:28.483Z,99619.77
2018-09-24T20:09:02.230Z,99619.77
2018-09-24T20:11:36.125Z,99627.23
2018-09-24T20:14:10.078Z,99625.80
2018-09-24T20:16:43.978Z,99628.63
2018-09-24T20:19:17.763Z,99624.50
2018-09-24T20:21:51.485Z,99625.37
2018-09-24T20:24:25.371Z,99625.41
2018-09-24T20:26:59.164Z,99630.33
2018-09-24T20:29:32.969Z,99626.96
2018-09-24T20:32:06.547Z,99622.55
2018-09-24T20:34:40.665Z,99627.55
2018-09-24T20:37:14.333Z,99632.95
2018-09-24T20:39:48.183Z,99628.94
2018-09-24T20:42:21.870Z,99635.61
2018-09-24T20:44:55.692Z,99635.63
2018-09-24T20:47:29.608Z,99643.94
2018-09-24T20:50:03.225Z,99634.08
2018-09-24T20:52:36.994Z,99641.57
2018-09-24T20:55:13.128Z,99644.47
2018-09-24T20:57:46.846Z,99647.52
2018-09-24T21:00:20.787Z,99656.16
2018-09-24T21:02:54.433Z,99653.07
2018-09-24T21:05:28.204Z,99652.59
2018-09-24T21:08:02.111Z,99651.98
2018-09-24T21:10:35.830Z,99657.96
2018-09-24T21:13:09.647Z,99667.38
2018-09-24T21:15:43.421Z,99677.84
2018-09-24T21:18:17.199Z,99679.88
2018-09-24T21:20:50.949Z,99686.19
2018-09-24T21:23:24.568Z,99683.41
2018-09-24T21:25:58.387Z,99690.08
2018-09-24T21:28:32.071Z,99684.62
2018-09-24T21:31:05.908Z,99697.59
2018-09-24T21:33:40.061Z,99695.42
2018-09-24T21:36:13.806Z,99699.28
2018-09-24T21:38:48.570Z,99689.97
2018-09-24T21:41:22.504Z,99700.42
2018-09-24T21:43:56.426Z,99707.88
2018-09-24T21:46:30.263Z,99708.05
2018-09-24T21:49:04.011Z,99708.34
2018-09-24T21:51:37.881Z,99707.95
2018-09-24T21:54:11.733Z,99714.11
2018-09-24T21:56:45.566Z,99717.67
2018-09-24T21:59:19.360Z,99709.67
2018-09-24T22:01:53.025Z,99713.10
2018-09-24T22:04:26.710Z,99714.86
2018-09-24T22:07:00.436Z,99715.54
2018-09-24T22:09:34.172Z,99715.20
2018-09-24T22:12:08.031Z,99710.86
2018-09-24T22:14:41.937Z,99706.70
2018-09-24T22:17:15.786Z,99709.38
2018-09-24T22:19:49.707Z,99712.30
2018-09-24T22:22:23.459Z,99723.10
2018-09-24T22:24:57.349Z,99713.30
2018-09-24T22:27:31.192Z,99715.75
2018-09-24T22:30:04.996Z,99720.01
2018-09-24T22:32:38.726Z,99715.19
2018-09-24T22:35:12.550Z,99712.43
2018-09-24T22:37:46.336Z,99715.31
2018-09-24T22:40:20.045Z,99715.83
2018-09-24T22:42:53.853Z,99719.83
2018-09-24T22:45:27.729Z,99723.01
2018-09-24T22:48:02.493Z,99722.23
2018-09-24T22:50:36.281Z,99722.41
2018-09-24T22:53:10.023Z,99731.06
2018-09-24T22:55:43.861Z,99731.73
2018-09-24T22:58:17.855Z,99734.45
2018-09-24T23:00:51.661Z,99737.85
2018-09-24T23:03:26.240Z,99736.48
2018-09-24T23:06:00.789Z,99737.67
2018-09-24T23:08:34.803Z,99740.96
2018-09-24T23:11:08.673Z,99750.41
2018-09-24T23:13:42.449Z,99750.89
2018-09-24T23:16:17.066Z,99747.55
2018-09-24T23:18:50.853Z,99748.36
2018-09-24T23:21:24.669Z,99753.36
2018-09-24T23:23:58.927Z,99749.87
2018-09-24T23:26:32.961Z,99758.06
2018-09-24T23:29:06.819Z,99761.03
2018-09-24T23:31:40.730Z,99764.05
2018-09-24T23:34:14.448Z,99768.59
2018-09-24T23:36:49.064Z,99774.75
2018-09-24T23:39:22.958Z,99777.06
2018-09-24T23:41:57.447Z,99782.38
2018-09-24T23:44:31.511Z,99781.40
2018-09-24T23:47:05.201Z,99789.86
2018-09-24T23:49:39.180Z,99786.90
2018-09-24T23:52:12.997Z,99792.05
2018-09-24T23:54:46.845Z,99795.20
2018-09-24T23:57:20.737Z,99795.35
2018-09-24T23:59:54.569Z,99795.81
